Impacts TAF Board INFO
FOR SITUATIONAL AWARENESS. NOT TO BE USED FOR FLIGHT PLANNING PURPOSES.
IDs:

KDFW - Dallas-Ft Worth Intl, TX, US

Issued at 0520 UTC 13 Dec 2017
Updated at 0706 UTC 13 Dec 2017
Potential Impact None Slight Moderate High
Time0653Z 13/08Z 13/09Z 13/10Z 13/11Z 13/12Z 13/13Z 13/14Z 13/15Z 13/16Z 13/17Z 13/18Z 13/19Z 13/20Z>>
Type OBS PRVL PRVL PRVL PRVL PRVL PRVL PRVL PRVL PRVL PRVL PRVL PRVL PRVL
VIS 10 >6 >6 >6 >6 >6 >6 >6 >6 >6 >6 >6 >6 >6
CIG -- -- -- -- -- -- -- -- -- -- -- -- -- --
Cover CLR SKC SKC SKC SKC SKC SKC SKC SKC SKC SKC SKC SKC SKC
FltCat VFR VFR VFR VFR VFR VFR VFR VFR VFR VFR VFR VFR VFR VFR
WX -- -- -- -- -- -- -- -- -- -- -- -- -- --
WDir 210 240 240 240 240 240 240 240 240 220 220 220 220 220
WSpd 6 4 4 4 4 4 4 4 4 15 15 15 15 15
WGst -- -- -- -- -- -- -- -- -- -- -- -- -- --

Raw TAF
KDFW 130520Z 1306/1412 24004KT P6SM SKC
  FM131600 22015KT P6SM SKC
  FM140400 34011KT P6SM SKC


Raw METAR
KDFW 130653Z 21006KT 10SM CLR 04/M01 A3013 RMK AO2 SLP202 T00441011
KDFW 130553Z 21005KT 10SM CLR 05/M02 A3016 RMK AO2 SLP212 T00501017 10117 20050 401440050 56022
KDFW 130453Z 22007KT 10SM CLR 07/M02 A3018 RMK AO2 SLP220 T00671022

METAR Board
Radar Display
Forecast Discussion

FOR SITUATIONAL AWARENESS. NOT TO BE USED FOR FLIGHT PLANNING PURPOSES.